createdAt,value
2018-01-10T00:00:15.575Z,90.30
2018-01-10T00:02:43.791Z,90.30
2018-01-10T00:05:12.504Z,90.50
2018-01-10T00:07:41.663Z,90.50
2018-01-10T00:10:10.718Z,90.40
2018-01-10T00:12:38.934Z,90.30
2018-01-10T00:15:07.407Z,90.20
2018-01-10T00:17:36.546Z,90.40
2018-01-10T00:20:05.433Z,90.30
2018-01-10T00:22:34.000Z,90.70
2018-01-10T00:25:02.184Z,90.70
2018-01-10T00:27:31.752Z,90.80
2018-01-10T00:30:01.477Z,90.90
2018-01-10T00:32:30.148Z,90.90
2018-01-10T00:34:58.835Z,90.90
2018-01-10T00:37:28.480Z,91.00
2018-01-10T00:39:57.176Z,91.00
2018-01-10T00:45:16.144Z,91.00
2018-01-10T00:47:44.829Z,91.00
2018-01-10T00:50:13.052Z,90.90
2018-01-10T00:52:42.517Z,91.00
2018-01-10T00:55:11.824Z,90.90
2018-01-10T00:57:40.024Z,90.90
2018-01-10T01:03:00.451Z,90.80
2018-01-10T01:05:29.176Z,90.70
2018-01-10T01:07:58.361Z,91.00
2018-01-10T01:10:28.632Z,91.00
2018-01-10T01:12:57.685Z,90.90
2018-01-10T01:15:26.933Z,91.00
2018-01-10T01:17:55.426Z,91.10
2018-01-10T01:20:23.607Z,91.20
2018-01-10T01:22:52.435Z,91.50
2018-01-10T01:25:21.590Z,91.40
2018-01-10T01:27:50.343Z,91.50
2018-01-10T01:30:19.002Z,91.60
2018-01-10T01:32:47.960Z,91.70
2018-01-10T01:35:18.767Z,91.80
2018-01-10T01:37:48.464Z,91.90
2018-01-10T01:40:16.863Z,91.80
2018-01-10T01:42:45.913Z,91.80
2018-01-10T01:45:14.254Z,91.70
2018-01-10T01:47:44.685Z,91.60
2018-01-10T01:50:13.710Z,91.60
2018-01-10T01:52:42.008Z,91.20
2018-01-10T01:55:11.684Z,90.90
2018-01-10T01:57:40.476Z,90.90
2018-01-10T02:00:09.447Z,91.00
2018-01-10T02:02:38.693Z,91.20
2018-01-10T02:05:08.908Z,91.30
2018-01-10T02:07:38.203Z,91.20
2018-01-10T02:10:07.684Z,91.40
2018-01-10T02:12:36.478Z,91.40
2018-01-10T02:15:05.172Z,91.50
2018-01-10T02:17:35.417Z,91.60
2018-01-10T02:20:04.051Z,91.60
2018-01-10T02:22:32.787Z,91.70
2018-01-10T02:25:01.137Z,91.60
2018-01-10T02:27:30.127Z,91.60
2018-01-10T02:29:58.701Z,91.70
2018-01-10T02:32:26.888Z,91.70
2018-01-10T02:34:56.215Z,91.60
2018-01-10T02:37:25.077Z,91.80
2018-01-10T02:39:53.564Z,91.80
2018-01-10T02:42:22.697Z,91.80
2018-01-10T02:44:50.864Z,91.70
2018-01-10T02:47:19.616Z,91.60
2018-01-10T02:49:49.096Z,91.70
2018-01-10T02:52:18.519Z,91.80
2018-01-10T02:54:47.659Z,91.60
2018-01-10T02:57:16.997Z,91.80
2018-01-10T02:59:46.626Z,91.70
2018-01-10T03:02:16.211Z,91.60
2018-01-10T03:04:45.335Z,91.50
2018-01-10T03:07:15.577Z,91.50
2018-01-10T03:09:44.555Z,91.40
2018-01-10T03:12:13.423Z,91.30
2018-01-10T03:14:41.882Z,91.40
2018-01-10T03:17:11.370Z,91.40
2018-01-10T03:19:41.032Z,91.30
2018-01-10T03:22:10.637Z,91.20
2018-01-10T03:24:39.921Z,91.40
2018-01-10T03:27:10.094Z,91.40
2018-01-10T03:29:38.628Z,91.40
2018-01-10T03:32:07.586Z,91.70
2018-01-10T03:34:36.661Z,91.60
2018-01-10T03:37:04.857Z,91.50
2018-01-10T03:39:34.046Z,91.10
2018-01-10T03:42:03.051Z,91.10
2018-01-10T03:44:31.286Z,91.10
2018-01-10T03:47:01.550Z,91.20
2018-01-10T03:49:29.900Z,91.30
2018-01-10T03:51:58.600Z,91.30
2018-01-10T03:54:27.226Z,91.60
2018-01-10T03:56:56.277Z,91.60
2018-01-10T03:59:25.656Z,91.60
2018-01-10T04:01:54.215Z,91.60
2018-01-10T04:04:23.471Z,91.60
2018-01-10T04:06:52.087Z,91.60
2018-01-10T04:09:21.825Z,91.60
2018-01-10T04:11:50.526Z,91.70
2018-01-10T04:14:19.737Z,91.70
2018-01-10T04:16:50.657Z,91.70
2018-01-10T04:19:19.616Z,91.80
2018-01-10T04:21:50.699Z,91.90
2018-01-10T04:24:20.291Z,92.10
2018-01-10T04:26:49.271Z,92.10
2018-01-10T04:29:19.018Z,92.10
2018-01-10T04:31:47.726Z,92.10
2018-01-10T04:34:16.661Z,92.20
2018-01-10T04:36:45.327Z,92.10
2018-01-10T04:39:14.420Z,92.00
2018-01-10T04:41:42.683Z,92.10
2018-01-10T04:44:11.218Z,92.30
2018-01-10T04:46:39.983Z,92.40
2018-01-10T04:49:09.671Z,92.10
2018-01-10T04:51:39.171Z,92.10
2018-01-10T04:54:07.966Z,92.00
2018-01-10T04:56:37.184Z,91.80
2018-01-10T04:59:07.476Z,91.90
2018-01-10T05:01:36.858Z,91.80
2018-01-10T05:04:05.416Z,91.90
2018-01-10T05:06:34.090Z,92.30
2018-01-10T05:09:02.773Z,92.20
2018-01-10T05:11:32.158Z,92.00
2018-01-10T05:14:00.864Z,92.30
2018-01-10T05:16:30.055Z,92.10
2018-01-10T05:18:58.408Z,92.10
2018-01-10T05:21:27.413Z,92.10
2018-01-10T05:23:57.060Z,92.10
2018-01-10T05:26:26.701Z,92.10
2018-01-10T05:28:55.268Z,92.00
2018-01-10T05:31:23.662Z,91.80
2018-01-10T05:33:53.994Z,91.60
2018-01-10T05:36:23.927Z,91.40
2018-01-10T05:38:52.651Z,91.20
2018-01-10T05:41:21.578Z,91.20
2018-01-10T05:43:50.492Z,91.30
2018-01-10T05:46:19.566Z,91.30
2018-01-10T05:48:48.533Z,91.20
2018-01-10T05:51:17.224Z,91.30
2018-01-10T05:53:46.523Z,91.30
2018-01-10T05:56:15.711Z,91.50
2018-01-10T05:58:43.984Z,91.60
2018-01-10T06:01:15.279Z,91.90
2018-01-10T06:03:44.278Z,91.90
2018-01-10T06:06:14.621Z,92.00
2018-01-10T06:08:43.340Z,92.20
2018-01-10T06:11:11.889Z,92.20
2018-01-10T06:13:40.384Z,92.40
2018-01-10T06:16:09.740Z,92.40
2018-01-10T06:18:39.098Z,92.40
2018-01-10T06:21:08.148Z,92.40
2018-01-10T06:23:36.794Z,92.20
2018-01-10T06:26:06.890Z,92.00
2018-01-10T06:28:35.476Z,92.00
2018-01-10T06:31:04.199Z,92.00
2018-01-10T06:33:32.729Z,91.90
2018-01-10T06:36:00.970Z,92.00
2018-01-10T06:38:29.592Z,91.80
2018-01-10T06:40:59.027Z,91.70
2018-01-10T06:43:27.901Z,91.50
2018-01-10T06:45:56.996Z,91.20
2018-01-10T06:48:25.822Z,91.00
2018-01-10T06:50:55.487Z,91.00
2018-01-10T06:53:24.264Z,91.00
2018-01-10T06:55:52.549Z,90.90
2018-01-10T06:58:21.674Z,91.00
2018-01-10T07:00:50.171Z,90.90
2018-01-10T07:03:19.358Z,90.90
2018-01-10T07:05:48.111Z,90.90
2018-01-10T07:08:16.724Z,90.60
2018-01-10T07:10:45.459Z,90.50
2018-01-10T07:13:14.782Z,90.60
2018-01-10T07:15:43.167Z,90.60
2018-01-10T07:18:13.458Z,90.60
2018-01-10T07:20:42.090Z,90.70
2018-01-10T07:23:10.546Z,90.70
2018-01-10T07:25:39.526Z,90.80
2018-01-10T07:28:08.792Z,90.70
2018-01-10T07:30:38.106Z,90.80
2018-01-10T07:33:07.197Z,90.80
2018-01-10T07:35:36.029Z,90.70
2018-01-10T07:38:05.269Z,90.90
2018-01-10T07:40:34.007Z,90.80
2018-01-10T07:43:03.159Z,90.80
2018-01-10T07:45:32.716Z,90.80
2018-01-10T07:48:02.135Z,90.90
2018-01-10T07:50:30.877Z,90.90
2018-01-10T07:53:01.186Z,90.70
2018-01-10T07:55:29.783Z,90.70
2018-01-10T07:57:58.325Z,90.70
2018-01-10T08:00:27.518Z,90.70
2018-01-10T08:02:56.424Z,90.40
2018-01-10T08:05:26.057Z,90.20
2018-01-10T08:07:56.913Z,90.20
2018-01-10T08:10:25.824Z,90.10
2018-01-10T08:12:56.173Z,90.40
2018-01-10T08:15:24.622Z,90.90
2018-01-10T08:17:53.538Z,90.50
2018-01-10T08:20:22.348Z,90.60
2018-01-10T08:22:51.617Z,90.30
2018-01-10T08:25:20.720Z,90.20
2018-01-10T08:27:50.109Z,90.40
2018-01-10T08:30:19.465Z,90.40
2018-01-10T08:32:47.721Z,90.40
2018-01-10T08:35:15.984Z,90.50
2018-01-10T08:37:44.549Z,90.20
2018-01-10T08:40:14.193Z,90.00
2018-01-10T08:42:42.770Z,89.90
2018-01-10T08:45:12.175Z,90.10
2018-01-10T08:47:40.617Z,90.40
2018-01-10T08:50:10.334Z,91.40
2018-01-10T08:52:40.757Z,85.40
2018-01-10T08:55:09.546Z,85.40
2018-01-10T08:57:38.959Z,80.80
2018-01-10T09:00:08.866Z,80.70
2018-01-10T09:02:37.789Z,76.70
2018-01-10T09:05:06.333Z,72.20
2018-01-10T09:07:34.503Z,69.40
2018-01-10T09:10:04.683Z,70.80
2018-01-10T09:12:34.625Z,70.80
2018-01-10T09:15:02.940Z,69.90
2018-01-10T09:17:31.446Z,67.00
2018-01-10T09:19:59.998Z,68.00
2018-01-10T09:22:28.756Z,67.10
2018-01-10T09:24:58.118Z,64.40
2018-01-10T09:27:26.624Z,64.40
2018-01-10T09:29:56.739Z,64.30
2018-01-10T09:32:25.417Z,64.30
2018-01-10T09:34:54.749Z,61.30
2018-01-10T09:37:24.066Z,61.30
2018-01-10T09:39:53.441Z,60.60
2018-01-10T09:42:23.373Z,58.70
2018-01-10T09:44:51.544Z,58.30
2018-01-10T09:47:19.997Z,59.10
2018-01-10T09:49:49.025Z,58.80
2018-01-10T09:52:17.928Z,59.20
2018-01-10T09:54:46.620Z,60.20
2018-01-10T09:57:16.446Z,61.10
2018-01-10T09:59:44.883Z,59.70
2018-01-10T10:02:14.034Z,60.50
2018-01-10T10:04:44.458Z,57.90
2018-01-10T10:07:13.716Z,57.80
2018-01-10T10:09:42.147Z,54.90
2018-01-10T10:12:11.439Z,53.00
2018-01-10T10:14:41.497Z,51.70
2018-01-10T10:17:10.247Z,51.70
2018-01-10T10:19:40.178Z,51.00
2018-01-10T10:22:09.824Z,51.80
2018-01-10T10:24:39.495Z,51.70
2018-01-10T10:27:09.066Z,50.40
2018-01-10T10:29:37.817Z,48.70
2018-01-10T10:32:06.890Z,47.40
2018-01-10T10:34:35.498Z,48.30
2018-01-10T10:37:04.170Z,50.20
2018-01-10T10:39:32.569Z,50.70
2018-01-10T10:42:01.669Z,50.40
2018-01-10T10:44:30.564Z,49.50
2018-01-10T10:47:00.452Z,49.20
2018-01-10T10:49:29.659Z,48.80
2018-01-10T10:51:59.044Z,47.60
2018-01-10T10:54:27.408Z,45.90
2018-01-10T10:56:56.627Z,44.70
2018-01-10T10:59:25.658Z,43.80
2018-01-10T11:01:55.284Z,43.40
2018-01-10T11:04:23.991Z,42.10
2018-01-10T11:06:52.270Z,41.50
2018-01-10T11:09:21.258Z,40.80
2018-01-10T11:11:50.934Z,41.00
2018-01-10T11:14:19.209Z,40.40
2018-01-10T11:16:49.844Z,39.10
2018-01-10T11:19:18.953Z,39.00
2018-01-10T11:21:47.142Z,39.20
2018-01-10T11:24:15.891Z,39.30
2018-01-10T11:26:44.484Z,39.90
2018-01-10T11:29:13.214Z,38.80
2018-01-10T11:31:42.638Z,38.70
2018-01-10T11:34:11.156Z,39.00
2018-01-10T11:36:39.670Z,36.90
2018-01-10T11:39:08.149Z,36.70
2018-01-10T11:41:36.971Z,36.40
2018-01-10T11:44:05.661Z,36.10
2018-01-10T11:46:35.287Z,37.00
2018-01-10T11:49:04.202Z,38.30
2018-01-10T11:51:33.728Z,39.20
2018-01-10T11:56:33.240Z,42.50
2018-01-10T11:59:02.292Z,44.00
2018-01-10T12:01:31.935Z,46.00
2018-01-10T12:04:02.221Z,45.90
2018-01-10T12:06:30.510Z,46.70
2018-01-10T12:09:00.136Z,47.70
2018-01-10T12:11:28.790Z,47.80
2018-01-10T12:13:58.685Z,48.30
2018-01-10T12:16:28.004Z,49.50
2018-01-10T12:18:56.688Z,49.50
2018-01-10T12:21:25.430Z,49.40
2018-01-10T12:23:55.784Z,50.30
2018-01-10T12:26:24.639Z,50.40
2018-01-10T12:28:54.284Z,50.80
2018-01-10T12:31:22.780Z,51.10
2018-01-10T12:33:51.189Z,50.70
2018-01-10T12:36:19.757Z,51.20
2018-01-10T12:38:48.562Z,50.80
2018-01-10T12:41:17.481Z,51.20
2018-01-10T12:43:46.542Z,51.10
2018-01-10T12:46:14.952Z,50.30
2018-01-10T12:48:43.541Z,50.60
2018-01-10T12:51:12.031Z,50.60
2018-01-10T12:53:41.402Z,50.60
2018-01-10T12:56:09.834Z,50.50
2018-01-10T12:58:39.191Z,50.40
2018-01-10T13:01:07.694Z,49.70
2018-01-10T13:03:36.800Z,49.10
2018-01-10T13:06:05.367Z,49.00
2018-01-10T13:08:35.074Z,48.20
2018-01-10T13:11:04.234Z,48.20
2018-01-10T13:13:33.341Z,48.10
2018-01-10T13:16:03.008Z,48.30
2018-01-10T13:18:31.956Z,48.30
2018-01-10T13:21:00.392Z,47.90
2018-01-10T13:23:29.580Z,48.20
2018-01-10T13:25:58.300Z,48.00
2018-01-10T13:28:27.454Z,47.30
2018-01-10T13:30:56.249Z,47.30
2018-01-10T13:33:26.224Z,46.50
2018-01-10T13:35:54.856Z,46.00
2018-01-10T13:38:24.159Z,45.90
2018-01-10T13:40:54.256Z,45.80
2018-01-10T13:43:22.467Z,46.80
2018-01-10T13:45:51.131Z,47.50
2018-01-10T13:48:20.459Z,48.50
2018-01-10T13:50:49.356Z,49.10
2018-01-10T13:53:18.633Z,47.90
2018-01-10T13:55:48.008Z,47.80
2018-01-10T13:58:16.578Z,47.70
2018-01-10T14:00:46.036Z,48.60
2018-01-10T14:03:15.371Z,48.40
2018-01-10T14:05:43.630Z,48.40
2018-01-10T14:08:14.700Z,48.50
2018-01-10T14:10:43.433Z,49.60
2018-01-10T14:13:12.546Z,50.70
2018-01-10T14:15:41.880Z,49.90
2018-01-10T14:18:10.742Z,50.30
2018-01-10T14:20:40.162Z,51.00
2018-01-10T14:23:08.739Z,51.50
2018-01-10T14:25:38.384Z,51.90
2018-01-10T14:28:07.208Z,52.40
2018-01-10T14:30:36.702Z,53.20
2018-01-10T14:33:06.319Z,53.40
2018-01-10T14:35:35.254Z,53.50
2018-01-10T14:38:04.383Z,53.50
2018-01-10T14:40:33.873Z,53.70
2018-01-10T14:43:03.387Z,53.50
2018-01-10T14:45:32.483Z,54.00
2018-01-10T14:48:01.492Z,53.90
2018-01-10T14:50:30.963Z,53.80
2018-01-10T14:53:01.756Z,52.80
2018-01-10T14:55:30.142Z,54.00
2018-01-10T14:57:59.218Z,53.00
2018-01-10T15:00:28.726Z,53.20
2018-01-10T15:02:57.514Z,54.20
2018-01-10T15:05:28.361Z,53.40
2018-01-10T15:07:57.843Z,53.80
2018-01-10T15:10:26.903Z,54.20
2018-01-10T15:12:56.306Z,56.80
2018-01-10T15:15:25.084Z,56.60
2018-01-10T15:17:54.248Z,57.10
2018-01-10T15:20:23.560Z,58.10
2018-01-10T15:22:52.249Z,58.50
2018-01-10T15:25:22.178Z,59.50
2018-01-10T15:27:51.660Z,60.90
2018-01-10T15:30:22.315Z,62.30
2018-01-10T15:32:51.545Z,64.30
2018-01-10T15:35:19.922Z,65.90
2018-01-10T15:37:48.683Z,67.40
2018-01-10T15:40:17.305Z,69.20
2018-01-10T15:42:46.092Z,71.00
2018-01-10T15:45:15.340Z,72.80
2018-01-10T15:47:44.175Z,73.50
2018-01-10T15:50:12.794Z,74.70
2018-01-10T15:52:41.079Z,75.50
2018-01-10T15:55:10.608Z,75.90
2018-01-10T15:57:39.580Z,75.90
2018-01-10T16:00:09.213Z,76.10
2018-01-10T16:02:38.233Z,75.90
2018-01-10T16:05:07.779Z,75.60
2018-01-10T16:07:36.857Z,75.60
2018-01-10T16:10:06.308Z,75.70
2018-01-10T16:12:34.981Z,76.00
2018-01-10T16:15:03.471Z,76.20
2018-01-10T16:17:33.136Z,76.60
2018-01-10T16:20:02.157Z,77.10
2018-01-10T16:22:31.327Z,77.10
2018-01-10T16:25:00.323Z,76.80
2018-01-10T16:27:30.016Z,77.10
2018-01-10T16:29:59.953Z,77.40
2018-01-10T16:32:28.913Z,77.50
2018-01-10T16:34:58.072Z,77.10
2018-01-10T16:37:26.375Z,77.20
2018-01-10T16:39:56.340Z,77.70
2018-01-10T16:42:24.817Z,77.00
2018-01-10T16:44:54.318Z,76.60
2018-01-10T16:47:22.887Z,76.60
2018-01-10T16:49:53.019Z,77.20
2018-01-10T16:52:22.056Z,77.40
2018-01-10T16:54:51.085Z,77.40
2018-01-10T16:57:20.020Z,77.70
2018-01-10T16:59:48.458Z,77.90
2018-01-10T17:02:18.572Z,78.30
2018-01-10T17:04:47.923Z,78.30
2018-01-10T17:07:17.009Z,77.70
2018-01-10T17:09:45.895Z,78.10
2018-01-10T17:12:14.320Z,78.90
2018-01-10T17:14:43.984Z,79.20
2018-01-10T17:17:12.299Z,80.00
2018-01-10T17:19:40.869Z,80.10
2018-01-10T17:22:10.834Z,80.30
2018-01-10T17:24:39.959Z,80.80
2018-01-10T17:27:08.170Z,81.30
2018-01-10T17:29:36.541Z,81.50
2018-01-10T17:32:05.281Z,82.10
2018-01-10T17:34:35.589Z,82.80
2018-01-10T17:37:04.240Z,82.70
2018-01-10T17:39:33.545Z,83.10
2018-01-10T17:42:02.470Z,83.60
2018-01-10T17:44:31.578Z,84.00
2018-01-10T17:47:00.067Z,83.70
2018-01-10T17:49:28.270Z,83.90
2018-01-10T17:51:56.365Z,83.80
2018-01-10T17:54:25.059Z,84.40
2018-01-10T17:56:54.022Z,84.50
2018-01-10T17:59:23.293Z,84.50
2018-01-10T18:01:51.962Z,84.60
2018-01-10T18:04:21.609Z,84.80
2018-01-10T18:06:50.235Z,84.80
2018-01-10T18:09:18.634Z,84.30
2018-01-10T18:11:48.053Z,84.80
2018-01-10T18:14:17.296Z,85.00
2018-01-10T18:16:45.849Z,85.00
2018-01-10T18:19:15.467Z,85.80
2018-01-10T18:21:44.640Z,85.40
2018-01-10T18:24:14.446Z,85.20
2018-01-10T18:26:43.736Z,85.30
2018-01-10T18:29:12.495Z,85.70
2018-01-10T18:31:41.218Z,86.20
2018-01-10T18:34:10.111Z,86.60
2018-01-10T18:36:39.724Z,86.10
2018-01-10T18:39:08.381Z,86.20
2018-01-10T18:41:37.536Z,86.10
2018-01-10T18:44:06.094Z,86.40
2018-01-10T18:46:34.777Z,86.30
2018-01-10T18:49:03.674Z,86.70
2018-01-10T18:51:32.360Z,86.20
2018-01-10T18:54:00.843Z,86.30
2018-01-10T18:56:29.435Z,86.60
2018-01-10T18:58:57.871Z,87.20
2018-01-10T19:01:26.947Z,86.80
2018-01-10T19:03:55.257Z,86.60
2018-01-10T19:06:24.265Z,86.60
2018-01-10T19:08:53.175Z,86.20
2018-01-10T19:11:22.137Z,86.10
2018-01-10T19:13:50.551Z,86.50
2018-01-10T19:16:18.896Z,86.10
2018-01-10T19:18:47.341Z,86.00
2018-01-10T19:21:16.343Z,86.40
2018-01-10T19:23:45.493Z,86.30
2018-01-10T19:26:14.616Z,86.30
2018-01-10T19:28:43.221Z,85.80
2018-01-10T19:31:12.311Z,85.40
2018-01-10T19:33:41.910Z,85.30
2018-01-10T19:36:10.456Z,85.10
2018-01-10T19:38:38.557Z,85.60
2018-01-10T19:41:08.593Z,86.00
2018-01-10T19:43:37.763Z,86.10
2018-01-10T19:46:07.763Z,86.00
2018-01-10T19:48:36.338Z,85.90
2018-01-10T19:51:05.185Z,85.80
2018-01-10T19:53:34.784Z,86.00
2018-01-10T19:56:03.195Z,86.40
2018-01-10T19:58:32.668Z,85.80
2018-01-10T20:01:01.934Z,85.80
2018-01-10T20:03:30.004Z,85.90
2018-01-10T20:05:58.646Z,85.50
2018-01-10T20:08:26.873Z,85.10
2018-01-10T20:10:55.847Z,85.00
2018-01-10T20:13:24.156Z,85.20
2018-01-10T20:15:53.154Z,85.60
2018-01-10T20:18:23.189Z,85.90
2018-01-10T20:20:52.065Z,86.00
2018-01-10T20:23:20.896Z,86.20
2018-01-10T20:25:49.189Z,86.00
2018-01-10T20:28:17.828Z,86.60
2018-01-10T20:30:47.184Z,86.40
2018-01-10T20:33:16.404Z,85.90
2018-01-10T20:35:46.091Z,86.00
2018-01-10T20:38:15.584Z,85.60
2018-01-10T20:40:44.692Z,86.20
2018-01-10T20:43:13.806Z,86.20
2018-01-10T20:45:42.286Z,86.20
2018-01-10T20:48:12.618Z,85.90
2018-01-10T20:50:41.199Z,86.20
2018-01-10T20:53:10.367Z,86.20
2018-01-10T20:55:39.121Z,86.20
2018-01-10T20:58:08.402Z,86.30
2018-01-10T21:00:36.925Z,86.20
2018-01-10T21:03:06.470Z,86.30
2018-01-10T21:05:35.027Z,86.40
2018-01-10T21:08:03.408Z,86.30
2018-01-10T21:10:31.891Z,86.20
2018-01-10T21:13:00.739Z,86.00
2018-01-10T21:15:30.558Z,86.10
2018-01-10T21:17:59.573Z,86.40
2018-01-10T21:20:28.153Z,86.70
2018-01-10T21:22:56.843Z,87.00
2018-01-10T21:25:26.079Z,86.30
2018-01-10T21:27:56.617Z,86.50
2018-01-10T21:30:26.823Z,87.90
2018-01-10T21:32:55.228Z,88.30
2018-01-10T21:35:24.080Z,88.30
2018-01-10T21:37:53.747Z,89.20
2018-01-10T21:40:21.866Z,88.90
2018-01-10T21:42:50.535Z,89.80
2018-01-10T21:45:19.343Z,90.30
2018-01-10T21:47:47.736Z,89.30
2018-01-10T21:50:16.718Z,89.20
2018-01-10T21:52:45.610Z,89.30
2018-01-10T21:55:15.086Z,90.00
2018-01-10T21:57:43.960Z,90.40
2018-01-10T22:00:13.300Z,90.40
2018-01-10T22:02:42.620Z,90.30
2018-01-10T22:05:10.988Z,90.20
2018-01-10T22:07:40.807Z,90.10
2018-01-10T22:10:09.889Z,90.10
2018-01-10T22:12:38.587Z,90.00
2018-01-10T22:15:08.232Z,90.20
2018-01-10T22:17:36.463Z,90.20
2018-01-10T22:20:05.560Z,90.60
2018-01-10T22:22:34.317Z,90.60
2018-01-10T22:25:02.572Z,90.70
2018-01-10T22:27:30.888Z,91.00
2018-01-10T22:29:59.876Z,91.20
2018-01-10T22:32:28.972Z,91.10
2018-01-10T22:34:58.246Z,91.10
2018-01-10T22:37:26.743Z,91.10
2018-01-10T22:39:55.790Z,91.10
2018-01-10T22:42:24.212Z,91.30
2018-01-10T22:44:53.342Z,91.40
2018-01-10T22:47:22.229Z,91.40
2018-01-10T22:49:50.712Z,91.20
2018-01-10T22:52:18.835Z,91.00
2018-01-10T22:54:47.007Z,91.10
2018-01-10T22:57:15.456Z,91.10
2018-01-10T22:59:45.148Z,91.10
2018-01-10T23:02:13.330Z,91.40
2018-01-10T23:04:42.050Z,91.30
2018-01-10T23:07:10.799Z,91.20
2018-01-10T23:09:39.944Z,91.10
2018-01-10T23:12:08.381Z,91.20
2018-01-10T23:14:36.507Z,91.30
2018-01-10T23:17:06.180Z,91.30
2018-01-10T23:19:34.947Z,91.20
2018-01-10T23:22:04.086Z,91.20
2018-01-10T23:24:34.138Z,91.00
2018-01-10T23:27:03.634Z,90.90
2018-01-10T23:29:32.980Z,90.90
2018-01-10T23:32:02.522Z,90.90
2018-01-10T23:34:31.299Z,90.90
2018-01-10T23:36:59.479Z,90.80
2018-01-10T23:39:28.332Z,90.70
2018-01-10T23:41:56.402Z,90.50
2018-01-10T23:44:26.286Z,90.60
2018-01-10T23:46:54.591Z,90.50
2018-01-10T23:49:22.754Z,90.40
2018-01-10T23:51:51.377Z,90.50
2018-01-10T23:54:20.220Z,90.60
2018-01-10T23:56:48.836Z,90.70
2018-01-10T23:59:17.469Z,90.80
